LFRJLFRH

Guest
Details From LFRJ - Landivisiau Navy
To LFRH - Lorient Lann-Bihoue
Flight Number -
Tags generated
Created
Modified
Stats Distance 54 nm / 101 km
Max Altitude 0 ft / 0 m
Waypoints 3
Social Downloads 0
Likes 0
Share VATSIM

Download

Looking for another format? Having issues loading an existing format? Contact us
Advertisement - Login to hide

Notes

Basic altitude profile: - Ascent Rate: 2500ft/min - Ascent Speed: 250kts - Cruise Altitude: 35000ft - Cruise Speed: 420kts - Descent Rate: 1500ft/min - Descent Speed: 250kts Options: - Use NATs: yes - Use PACOTS: yes - Use low airways: yes - Use high airways: yes

Route

LFRJ LDV LFRH

ID Type Via Altitude Latitude Longitude Leg Dist Tot Dist Heading (true) Name
O LFRJ APT - 0 ft / 0 m 48.53023˚ -4.15179˚ - 0 nm - Landivisiau Navy
LDV VOR - 0 ft / 0 m 48.52828˚ -4.15631˚ 0 nm 0 nm 237° / 237° -
O LFRH APT - 0 ft / 0 m 47.76247˚ -3.44091˚ 54 nm 54 nm 148° / 148° Lorient Lann-Bihoue

Altitude Profile

Advertisement - Login to hide

LFRJ

Details ICAO LFRJ
Name Landivisiau Navy
Region France
Timezone Europe/Paris (UTC+1.0)
Stats Elevation 347 ft / 106 m (AMSL)
Location 48.530229° -4.151792°
Runways 1
Magnetic Variation 1.494° W

METAR

LFRJ 122130Z AUTO 21013KT 7000 -DZ BKN006 OVC012 08/07 Q1010 BECMG 20020G30KT 4000 RA

Decode

TAF

Not found

Departure Runways

ID Width Length Bearing (true) Bearing (mag) Surface Threshold Offset Overrun Length
08 148 ft / 45 m 8,868 ft / 2,703 m 73.24° 74.73° Asphalt 0 ft / 0 m 279 ft / 85 m
26 148 ft / 45 m 8,868 ft / 2,703 m 253.27° 254.76° Asphalt 0 ft / 0 m 279 ft / 85 m

LFRH

Details ICAO LFRH (LRT)
Name Lorient Lann-Bihoue
Region France
Timezone Europe/Paris (UTC+1.0)
Stats Elevation 122 ft / 37 m (AMSL)
Location 47.762466° -3.440907°
Runways 2
Magnetic Variation 1.166° W

METAR

LFRH 122130Z AUTO 22012KT 9999 FEW023 BKN028 BKN034 11/07 Q1013 BECMG 22015G25KT 4000 RA

Decode

TAF

TAF TAF LFRH 121700Z 1218/1318 23012KT 9999 BKN035 BECMG 1221/1223 22015G25KT 4000 RA SCT010 OVC015 TEMPO 1300/1302 22020G32KT OVC009 BECMG 1303/1304 28012KT 9999 NSW SCT020 BECMG 1310/1311 24015G30KT BECMG 1312/1313 22020G35KT 3000 RA SCT006 OVC010 TEMPO 1314/1315 25025G40KT 1500 +RA OVC005 BECMG 1315/1316 28015G30KT 9999 NSW BKN025

Decode

Destination Runways

ID Width Length Bearing (true) Bearing (mag) Surface Threshold Offset Overrun Length
02 148 ft / 45 m 6,895 ft / 2,102 m 16.11° 17.28° Asphalt 0 ft / 0 m 0 ft / 0 m
07 148 ft / 45 m 7,879 ft / 2,401 m 71.70° 72.87° Concrete 0 ft / 0 m 295 ft / 90 m
20 148 ft / 45 m 6,895 ft / 2,102 m 196.12° 197.29° Asphalt 1,411 ft / 430 m 0 ft / 0 m
25 148 ft / 45 m 7,879 ft / 2,401 m 251.72° 252.89° Concrete 568 ft / 173 m 89 ft / 27 m

Approach Navaids

Runway Type Ident Frequency Range Bearing (true) Bearing (mag) Slope Elevation
25 Localiser BH 108.15 MHz 18 nm / 33 km 251.71° 252.87° - 144 ft / 44 m (AMSL)
25 Glidescope BH 108.15 MHz 10 nm / 19 km 251.71° 252.87° 3.00° 196 ft / 60 m (AMSL)